Highworth, United Kingdom
Current Conditions -  °F | °C
As of 5:58 PM on Friday 31 Oct 2014 (Local Time) from EGVA Reporting Station
Clear Clear  
Wind Chill: 61°   Ceiling: Unl
Heat Index: 61°   Visibility: 6mi
Dew Point: 55°   Wind: 7mph
Humidity: 80%   Direction: 160°SSE
Pressure: 29.91"   Gusts: NA
Location:  51.63°N, 1.71°W
Report Text: EGVA 311758Z AUTO 16006KT 9999 CLR 16/13 A2991 RMK AO2 SLP131 P2400 614400 T01600125 10217 20159 58002
Loading
Personal Weather Stations






























Interactive Weather Map New forecast layout! Learn more

10-Day Weather Forecast

Advertisements
Track Severe Weather on mobile